Time;durP1;ratioP1;P1;durP2;ratioP2;P2;SDS_P1;SDS_P2;PMS_P1;PMS_P2;Temp;Humidity;BMP_temperature;BMP_pressure;BME280_temperature;BME280_humidity;BME280_pressure;Samples;Min_cycle;Max_cycle;Signal;HPM_P1;HPM_P2
2022/11/10 00:00:08;;;;;;;37.70;22.60;;;;;;;6.76;52.73;101504.84;105978;1305;21963;-62
2022/11/10 00:02:35;;;;;;;47.10;26.50;;;;;;;6.86;52.82;101507.16;104555;1304;1003078;-63
2022/11/10 00:05:01;;;;;;;57.50;30.00;;;;;;;6.97;52.89;101504.75;106042;1300;21964;-64
2022/11/10 00:07:27;;;;;;;40.10;24.80;;;;;;;7.04;52.81;101500.55;106035;1304;21972;-62
2022/11/10 00:09:53;;;;;;;42.60;27.30;;;;;;;7.13;53.00;101497.75;106072;1304;21969;-64
2022/11/10 00:12:19;;;;;;;58.60;32.40;;;;;;;7.23;53.06;101494.11;105925;1304;21963;-63
2022/11/10 00:17:31;;;;;;;44.30;25.30;;;;;;;7.46;53.35;101494.36;106036;1304;21973;-65
2022/11/10 00:19:58;;;;;;;55.90;31.00;;;;;;;7.55;53.28;101498.37;106189;1301;21983;-62
2022/11/10 00:22:23;;;;;;;57.10;30.00;;;;;;;7.63;53.12;101495.18;107888;1304;21890;-62
2022/11/10 00:24:49;;;;;;;64.20;31.90;;;;;;;7.69;53.17;101491.81;106095;1306;24336;-62
2022/11/10 00:27:16;;;;;;;67.50;36.00;;;;;;;7.73;52.74;101490.99;107807;1306;21869;-63
2022/11/10 00:29:42;;;;;;;59.40;32.50;;;;;;;7.73;52.58;101493.62;107869;1304;22504;-65
2022/11/10 00:32:08;;;;;;;43.00;26.50;;;;;;;7.72;52.72;101492.91;105937;1304;21954;-62
2022/11/10 00:34:34;;;;;;;35.20;20.90;;;;;;;7.70;52.67;101494.27;106123;1306;21975;-64
2022/11/10 00:36:59;;;;;;;31.30;19.80;;;;;;;7.68;52.68;101494.23;105901;1304;21978;-64
2022/11/10 00:39:25;;;;;;;27.90;17.80;;;;;;;7.68;52.77;101490.91;105971;1304;21991;-62
2022/11/10 00:41:51;;;;;;;28.10;18.50;;;;;;;7.69;53.00;101492.85;105945;1304;21973;-62
2022/11/10 00:44:16;;;;;;;31.70;20.10;;;;;;;7.70;52.72;101488.51;105909;1302;21963;-62
2022/11/10 00:46:42;;;;;;;35.10;22.10;;;;;;;7.72;52.84;101484.69;105931;1305;21967;-62
2022/11/10 00:49:08;;;;;;;34.50;23.70;;;;;;;7.68;52.52;101487.25;105910;1306;21964;-64
2022/11/10 00:51:34;;;;;;;36.20;24.30;;;;;;;7.63;52.30;101490.12;105957;1304;21970;-64
2022/11/10 00:54:00;;;;;;;33.20;21.30;;;;;;;7.56;52.31;101485.97;105925;1304;21963;-65
2022/11/10 00:56:26;;;;;;;35.70;22.90;;;;;;;7.48;52.23;101484.63;106109;1304;21981;-65
2022/11/10 00:58:52;;;;;;;31.30;21.50;;;;;;;7.40;52.06;101484.65;105946;1304;22006;-62
2022/11/10 01:01:18;;;;;;;30.40;18.90;;;;;;;7.30;52.27;101483.23;105961;1304;21960;-62
2022/11/10 01:03:46;;;;;;;29.10;19.30;;;;;;;7.23;52.31;101483.98;106001;1304;21970;-62
2022/11/10 01:06:14;;;;;;;24.80;18.10;;;;;;;7.15;51.97;101487.67;105954;1304;21988;-65
2022/11/10 01:08:40;;;;;;;24.90;17.60;;;;;;;7.10;52.38;101490.19;105964;1303;21967;-63
2022/11/10 01:11:12;;;;;;;25.90;16.90;;;;;;;7.07;52.23;101491.52;105941;1304;21965;-62
2022/11/10 01:13:39;;;;;;;25.60;16.80;;;;;;;7.04;52.25;101490.77;105927;1295;22604;-63
2022/11/10 01:16:07;;;;;;;24.90;17.40;;;;;;;6.97;52.23;101492.90;106134;1304;21972;-65
2022/11/10 01:18:34;;;;;;;32.00;21.20;;;;;;;6.93;52.20;101494.02;106077;1304;21983;-65
2022/11/10 01:21:00;;;;;;;23.60;16.40;;;;;;;6.85;51.94;101492.98;105989;1295;21957;-62
2022/11/10 01:23:27;;;;;;;30.10;18.20;;;;;;;6.73;52.30;101491.01;105930;1305;21966;-62
2022/11/10 01:25:57;;;;;;;24.90;15.90;;;;;;;6.65;52.50;101491.34;105991;1304;21970;-65
2022/11/10 01:28:24;;;;;;;23.40;17.20;;;;;;;6.59;52.64;101488.59;105897;1304;21967;-63
2022/11/10 01:30:57;;;;;;;21.40;14.10;;;;;;;6.52;52.72;101491.08;106008;1304;21976;-62
2022/11/10 01:33:24;;;;;;;21.10;14.80;;;;;;;6.51;52.89;101490.70;105974;1304;21966;-64
2022/11/10 01:35:50;;;;;;;20.90;14.10;;;;;;;6.51;52.63;101488.09;105943;1304;21972;-63
2022/11/10 01:38:20;;;;;;;21.40;14.30;;;;;;;6.52;52.92;101486.19;106026;1304;21965;-65
2022/11/10 01:40:46;;;;;;;19.10;14.00;;;;;;;6.50;52.87;101483.54;105927;1301;22001;-65
2022/11/10 01:43:11;;;;;;;22.80;15.60;;;;;;;6.50;52.73;101483.89;106089;1304;21959;-63
2022/11/10 01:45:48;;;;;;;20.70;14.20;;;;;;;6.48;52.91;101483.83;105908;1304;23101;-65
2022/11/10 01:48:37;;;;;;;27.80;18.40;;;;;;;6.45;52.90;101485.85;105948;1304;21967;-63
2022/11/10 01:51:27;;;;;;;30.60;19.70;;;;;;;6.44;52.78;101484.26;105871;1304;22007;-66
2022/11/10 01:54:01;;;;;;;24.10;15.50;;;;;;;6.40;53.26;101482.95;105737;1306;22010;-65
2022/11/10 01:56:28;;;;;;;23.70;14.70;;;;;;;6.37;53.30;101485.35;105925;1301;21968;-65
2022/11/10 01:58:57;;;;;;;17.40;12.40;;;;;;;6.36;53.30;101488.80;106007;1304;22449;-65
2022/11/10 02:01:23;;;;;;;18.10;11.30;;;;;;;6.36;53.29;101494.38;106121;1304;21983;-66
2022/11/10 02:03:51;;;;;;;21.90;13.50;;;;;;;6.34;53.13;101493.98;105775;1306;22050;-65
2022/11/10 02:06:19;;;;;;;21.90;14.10;;;;;;;6.34;53.18;101492.06;105926;1305;22017;-63
2022/11/10 02:08:46;;;;;;;19.40;12.10;;;;;;;6.34;53.26;101496.77;105985;1304;24333;-65
2022/11/10 02:11:12;;;;;;;15.90;11.20;;;;;;;6.33;53.23;101499.89;105832;1304;21960;-62
2022/11/10 02:13:38;;;;;;;15.60;11.00;;;;;;;6.31;53.27;101498.80;105784;1306;22002;-63
2022/11/10 02:16:04;;;;;;;19.30;12.00;;;;;;;6.33;53.61;101498.84;105777;1306;21967;-66
2022/11/10 02:18:30;;;;;;;16.90;10.90;;;;;;;6.36;53.54;101501.02;105935;1304;22008;-66
2022/11/10 02:20:57;;;;;;;19.90;13.20;;;;;;;6.39;53.58;101501.61;105910;1304;21984;-63
2022/11/10 02:23:33;;;;;;;20.50;12.80;;;;;;;6.40;53.60;101503.55;105881;1304;21971;-65
2022/11/10 02:25:59;;;;;;;16.20;11.10;;;;;;;6.43;53.71;101503.23;105938;1301;21969;-66
2022/11/10 02:28:31;;;;;;;15.80;11.80;;;;;;;6.44;53.68;101505.52;105960;1301;21980;-65
2022/11/10 02:30:57;;;;;;;20.90;13.30;;;;;;;6.47;53.91;101506.13;105947;1303;22031;-63
2022/11/10 02:33:23;;;;;;;15.50;11.20;;;;;;;6.50;53.75;101505.85;105940;1304;21972;-62
2022/11/10 02:35:49;;;;;;;16.50;10.60;;;;;;;6.54;53.77;101505.06;105892;1304;22429;-62
2022/11/10 02:38:14;;;;;;;17.30;11.40;;;;;;;6.58;53.88;101506.20;105952;1304;21968;-63
2022/11/10 02:40:42;;;;;;;17.40;12.00;;;;;;;6.61;53.89;101506.80;105942;1304;21959;-65
2022/11/10 02:43:10;;;;;;;18.70;13.50;;;;;;;6.62;54.05;101506.29;106695;1304;21800;-64
2022/11/10 02:45:40;;;;;;;16.40;12.30;;;;;;;6.60;53.90;101506.27;106641;1304;23705;-65
2022/11/10 02:48:07;;;;;;;16.90;12.30;;;;;;;6.60;53.72;101506.23;107892;1300;21782;-64
2022/11/10 02:50:34;;;;;;;19.10;13.00;;;;;;;6.58;53.74;101509.53;105655;1304;1002799;-66
2022/11/10 02:53:02;;;;;;;16.70;12.10;;;;;;;6.59;53.71;101510.06;107167;1304;1002322;-63
2022/11/10 02:55:28;;;;;;;14.80;10.70;;;;;;;6.56;53.37;101514.20;107794;1301;21942;-64
2022/11/10 02:57:54;;;;;;;14.30;11.00;;;;;;;6.56;54.01;101515.05;106616;1297;21960;-63
2022/11/10 03:00:21;;;;;;;15.00;11.10;;;;;;;6.55;53.74;101510.15;105980;1305;21964;-62
2022/11/10 03:02:46;;;;;;;15.70;12.10;;;;;;;6.54;53.83;101508.74;105938;1298;22035;-66
2022/11/10 03:05:12;;;;;;;14.70;11.60;;;;;;;6.57;53.77;101507.05;105834;1304;21959;-62
2022/11/10 03:07:41;;;;;;;18.10;12.60;;;;;;;6.59;53.81;101509.89;105891;1304;21960;-65
2022/11/10 03:10:08;;;;;;;18.30;11.90;;;;;;;6.60;53.91;101513.59;105843;1304;21960;-66
2022/11/10 03:12:34;;;;;;;13.50;10.80;;;;;;;6.58;53.58;101510.05;105855;1295;21964;-65
2022/11/10 03:14:59;;;;;;;16.50;11.80;;;;;;;6.57;53.62;101508.80;105895;1304;21971;-62
2022/11/10 03:17:28;;;;;;;14.10;11.00;;;;;;;6.57;53.65;101507.39;105914;1305;22038;-62
2022/11/10 03:19:55;;;;;;;16.70;11.80;;;;;;;6.55;53.89;101504.41;105913;1306;23162;-66
2022/11/10 03:22:21;;;;;;;14.10;11.80;;;;;;;6.55;53.74;101504.92;105871;1304;21972;-62
2022/11/10 03:24:46;;;;;;;16.00;12.30;;;;;;;6.56;53.97;101506.51;105888;1300;21965;-66
2022/11/10 03:27:12;;;;;;;14.60;11.10;;;;;;;6.57;53.86;101508.96;105891;1300;22082;-66
2022/11/10 03:29:40;;;;;;;16.80;12.40;;;;;;;6.60;53.94;101506.59;106021;1304;21962;-66
2022/11/10 03:32:06;;;;;;;17.30;12.40;;;;;;;6.63;53.77;101505.27;105904;1301;21984;-63
2022/11/10 03:34:32;;;;;;;18.30;13.00;;;;;;;6.67;54.01;101504.99;105910;1304;21967;-63
2022/11/10 03:36:58;;;;;;;21.40;14.60;;;;;;;6.70;53.54;101503.67;105869;1299;21963;-63
2022/11/10 03:39:25;;;;;;;24.90;16.00;;;;;;;6.72;53.68;101503.38;105984;1301;21979;-66
2022/11/10 03:41:51;;;;;;;21.70;15.10;;;;;;;6.72;53.71;101502.68;105814;1306;22004;-62
2022/11/10 03:44:17;;;;;;;18.70;13.70;;;;;;;6.71;53.52;101501.08;105858;1305;21968;-63
2022/11/10 03:46:42;;;;;;;18.20;13.50;;;;;;;6.68;53.48;101498.39;105855;1304;21954;-65
2022/11/10 03:49:09;;;;;;;19.40;13.40;;;;;;;6.62;53.54;101501.77;105840;1304;21973;-63
2022/11/10 03:51:35;;;;;;;17.00;13.30;;;;;;;6.55;53.62;101502.65;107913;1295;21784;-64
2022/11/10 03:54:00;;;;;;;18.60;13.00;;;;;;;6.46;53.30;101501.05;107884;1305;21928;-63
2022/11/10 03:56:26;;;;;;;14.30;11.80;;;;;;;6.38;53.53;101502.09;107012;1304;23710;-63
2022/11/10 03:58:52;;;;;;;18.20;13.00;;;;;;;6.31;53.67;101503.51;105805;1304;21963;-63
2022/11/10 04:01:18;;;;;;;18.20;14.40;;;;;;;6.23;53.77;101503.51;105837;1305;21965;-65
2022/11/10 04:03:44;;;;;;;18.80;13.00;;;;;;;6.24;54.05;101506.31;105813;1305;21978;-65
2022/11/10 04:08:58;;;;;;;16.10;11.90;;;;;;;6.31;53.91;101505.94;105841;1306;21969;-62
2022/11/10 04:16:55;;;;;;;17.20;12.70;;;;;;;6.29;54.01;101508.34;105901;1304;21962;-64
2022/11/10 04:19:21;;;;;;;13.90;10.90;;;;;;;6.29;53.92;101508.14;105848;1304;21970;-62
2022/11/10 04:21:47;;;;;;;14.30;11.80;;;;;;;6.29;54.05;101506.77;105902;1304;21961;-65
2022/11/10 04:24:13;;;;;;;18.50;11.90;;;;;;;6.30;54.19;101508.71;105863;1305;21972;-66
2022/11/10 04:26:41;;;;;;;25.40;14.80;;;;;;;6.34;53.96;101503.39;105921;1306;21973;-62
2022/11/10 04:29:08;;;;;;;30.50;17.30;;;;;;;6.37;54.09;101505.75;105968;1306;21964;-64
2022/11/10 04:31:36;;;;;;;43.60;20.70;;;;;;;6.40;54.06;101507.55;106014;1306;21983;-65
2022/11/10 04:34:04;;;;;;;54.10;23.70;;;;;;;6.38;53.82;101508.39;105901;1306;21990;-62
2022/11/10 04:36:31;;;;;;;64.60;27.10;;;;;;;6.35;54.00;101514.06;105772;1306;21963;-66
2022/11/10 04:38:57;;;;;;;54.00;24.60;;;;;;;6.31;54.12;101511.52;106021;1299;21973;-65
2022/11/10 04:41:24;;;;;;;65.50;25.30;;;;;;;6.29;54.21;101516.88;105885;1306;22225;-62
2022/11/10 04:43:49;;;;;;;56.90;27.50;;;;;;;6.29;53.90;101520.52;105924;1304;21971;-62
2022/11/10 04:46:35;;;;;;;64.30;25.00;;;;;;;6.28;53.84;101521.39;105865;1304;21957;-64
2022/11/10 04:49:03;;;;;;;39.60;20.70;;;;;;;6.27;53.95;101527.81;105938;1304;21968;-63
2022/11/10 04:51:31;;;;;;;36.50;17.70;;;;;;;6.26;53.99;101531.62;105972;1305;21974;-61
2022/11/10 04:53:57;;;;;;;34.70;16.60;;;;;;;6.25;54.22;101529.34;106034;1304;22054;-62
2022/11/10 04:56:24;;;;;;;31.40;16.40;;;;;;;6.32;54.20;101528.64;106020;1304;21963;-64
2022/11/10 04:58:50;;;;;;;29.00;16.00;;;;;;;6.42;54.32;101532.87;105970;1305;21983;-64
2022/11/10 05:01:18;;;;;;;30.90;17.20;;;;;;;6.55;54.54;101534.73;105958;1304;21975;-63
2022/11/10 05:03:45;;;;;;;32.30;15.60;;;;;;;6.68;54.45;101535.02;105896;1304;21963;-63
2022/11/10 05:06:12;;;;;;;31.40;17.60;;;;;;;6.75;54.25;101535.70;105912;1305;21951;-63
2022/11/10 05:08:39;;;;;;;40.10;17.80;;;;;;;6.81;54.18;101534.96;106008;1304;21971;-63
2022/11/10 05:11:06;;;;;;;32.20;15.50;;;;;;;6.90;54.16;101537.42;105977;1306;21967;-63
2022/11/10 05:13:32;;;;;;;19.70;12.80;;;;;;;6.99;54.20;101533.77;105935;1305;21961;-65
2022/11/10 05:15:58;;;;;;;24.10;12.10;;;;;;;7.07;54.38;101535.69;105943;1306;21972;-62
2022/11/10 05:18:27;;;;;;;35.00;14.20;;;;;;;7.16;54.42;101541.63;105938;1306;21979;-63
2022/11/10 05:20:54;;;;;;;23.70;14.60;;;;;;;7.19;53.92;101546.23;106012;1305;22438;-61
2022/11/10 05:23:38;;;;;;;22.50;15.50;;;;;;;7.17;54.06;101549.48;105978;1306;21961;-62
2022/11/10 05:26:08;;;;;;;19.60;13.60;;;;;;;7.18;54.23;101553.52;105946;1306;24427;-62
2022/11/10 05:28:36;;;;;;;18.40;13.40;;;;;;;7.24;54.31;101560.47;105993;1306;21975;-62
2022/11/10 05:31:02;;;;;;;22.40;13.20;;;;;;;7.29;54.41;101560.74;105185;1306;1002712;-62
2022/11/10 05:33:28;;;;;;;20.00;12.60;;;;;;;7.40;54.62;101563.58;105840;1303;21972;-64
2022/11/10 05:35:54;;;;;;;17.90;13.00;;;;;;;7.53;54.76;101566.63;106034;1304;21965;-65
2022/11/10 05:38:19;;;;;;;20.00;12.80;;;;;;;7.66;54.76;101567.04;105936;1305;21990;-63
2022/11/10 05:40:46;;;;;;;42.00;15.00;;;;;;;7.77;54.77;101567.23;105932;1301;22023;-62
2022/11/10 05:43:11;;;;;;;18.70;13.40;;;;;;;7.88;54.84;101569.38;105920;1299;21970;-61
2022/11/10 05:45:37;;;;;;;18.40;12.60;;;;;;;7.99;54.60;101575.84;104592;1305;1002411;-62
2022/11/10 05:48:03;;;;;;;19.70;13.30;;;;;;;8.09;54.57;101574.09;105871;1305;23093;-62
2022/11/10 05:50:29;;;;;;;15.00;10.80;;;;;;;8.18;54.65;101575.11;105863;1304;22055;-64
2022/11/10 05:52:55;;;;;;;16.90;12.20;;;;;;;8.29;54.77;101573.39;105872;1306;21981;-64
2022/11/10 05:55:26;;;;;;;23.00;13.30;;;;;;;8.43;54.79;101572.02;105907;1305;21960;-60
2022/11/10 05:57:52;;;;;;;23.90;12.60;;;;;;;8.58;54.85;101573.33;105957;1304;21967;-60
2022/11/10 06:00:20;;;;;;;16.50;12.00;;;;;;;8.72;54.71;101575.48;106038;1304;21974;-62
2022/11/10 06:03:15;;;;;;;19.80;12.90;;;;;;;8.84;54.82;101573.53;105923;1304;22690;-64
2022/11/10 06:05:43;;;;;;;19.70;12.50;;;;;;;8.97;54.74;101574.59;105896;1306;22030;-64
2022/11/10 06:08:09;;;;;;;15.50;11.70;;;;;;;9.09;54.72;101575.80;105868;1295;21972;-61
2022/11/10 06:10:36;;;;;;;22.00;12.70;;;;;;;9.22;54.82;101576.31;105839;1304;21967;-61
2022/11/10 06:13:02;;;;;;;18.10;12.20;;;;;;;9.36;54.76;101578.92;105851;1304;21971;-61
2022/11/10 06:15:28;;;;;;;18.10;12.90;;;;;;;9.49;54.75;101582.59;107871;1298;21838;-62
2022/11/10 06:17:54;;;;;;;18.00;12.40;;;;;;;9.61;54.67;101580.98;107898;1304;21862;-61
2022/11/10 06:20:19;;;;;;;17.50;12.10;;;;;;;9.74;54.69;101585.64;107876;1305;21899;-61
2022/11/10 06:23:02;;;;;;;18.50;11.30;;;;;;;9.86;54.61;101587.19;107913;1304;21872;-65
2022/11/10 06:25:33;;;;;;;16.70;12.40;;;;;;;9.98;54.69;101586.78;107889;1305;21785;-65
2022/11/10 06:27:59;;;;;;;17.30;12.50;;;;;;;10.09;54.88;101588.46;106769;1306;21961;-65
2022/11/10 06:30:25;;;;;;;18.30;13.10;;;;;;;10.25;54.75;101589.30;105903;1304;21966;-61
2022/11/10 06:32:51;;;;;;;17.00;12.50;;;;;;;10.44;54.68;101585.79;105723;1306;352370;-65
2022/11/10 06:35:18;;;;;;;18.40;12.60;;;;;;;10.52;54.75;101587.79;106052;1290;21972;-62
2022/11/10 06:37:45;;;;;;;172.50;23.30;;;;;;;10.63;54.86;101587.86;106012;1305;23711;-65
2022/11/10 06:40:13;;;;;;;31.30;13.70;;;;;;;10.79;55.14;101590.60;106011;1306;21971;-61
2022/11/10 06:42:40;;;;;;;22.20;13.90;;;;;;;10.95;55.09;101592.96;106052;1306;21938;-64
2022/11/10 06:45:06;;;;;;;22.60;14.00;;;;;;;11.17;55.22;101589.05;105940;1302;21964;-63
2022/11/10 06:47:33;;;;;;;28.30;15.90;;;;;;;11.25;55.20;101580.30;105090;1303;1002039;-64
2022/11/10 06:49:58;;;;;;;20.70;14.90;;;;;;;11.35;55.62;101579.98;105770;1306;22428;-64
2022/11/10 06:52:24;;;;;;;22.70;14.90;;;;;;;11.48;55.76;101580.73;105874;1306;21978;-66
2022/11/10 06:54:50;;;;;;;22.30;13.80;;;;;;;11.58;55.78;101579.36;106071;1305;21979;-66
2022/11/10 06:57:15;;;;;;;1947.80;305.80;;;;;;;11.68;56.14;101576.75;106012;1304;21981;-66
2022/11/10 06:59:41;;;;;;;1919.00;281.70;;;;;;;11.84;56.22;101575.01;106028;1305;22307;-65
2022/11/10 07:02:12;;;;;;;1004.70;151.30;;;;;;;11.95;56.29;101575.02;105979;1300;21978;-62
2022/11/10 07:04:37;;;;;;;;;;;;;;;12.05;56.56;101578.77;105781;1306;21958;-62
2022/11/10 07:07:03;;;;;;;99.30;22.90;;;;;;;12.17;56.50;101580.17;105762;1306;21965;-64
2022/11/10 07:09:29;;;;;;;72.90;20.10;;;;;;;12.30;56.41;101577.54;106116;1304;21971;-65
2022/11/10 07:11:56;;;;;;;46.50;16.10;;;;;;;12.45;56.55;101576.11;105980;1306;22008;-66
2022/11/10 07:14:22;;;;;;;44.80;17.70;;;;;;;12.58;56.60;101576.64;106031;1306;21980;-66
2022/11/10 07:16:48;;;;;;;46.10;17.60;;;;;;;12.71;56.85;101574.14;105991;1299;21953;-66
2022/11/10 07:19:14;;;;;;;25.50;15.00;;;;;;;12.84;56.85;101574.82;106032;1304;21964;-66
2022/11/10 07:21:41;;;;;;;24.30;13.10;;;;;;;12.93;56.86;101573.73;105932;1303;23637;-65
2022/11/10 07:24:07;;;;;;;20.90;13.00;;;;;;;13.05;56.66;101572.65;107922;1306;21907;-65
2022/11/10 07:26:34;;;;;;;27.50;14.00;;;;;;;13.15;57.00;101572.08;107896;1304;21814;-64
2022/11/10 07:28:59;;;;;;;22.30;14.00;;;;;;;13.27;57.17;101572.55;108058;1303;21872;-63
2022/11/10 07:31:25;;;;;;;27.40;12.00;;;;;;;13.32;56.90;101571.83;106371;1306;22067;-62
2022/11/10 07:33:54;;;;;;;18.30;11.60;;;;;;;13.40;57.08;101572.34;105848;1306;22018;-66
2022/11/10 07:36:20;;;;;;;16.80;10.50;;;;;;;13.49;57.66;101575.13;107169;1305;21967;-62
2022/11/10 07:38:46;;;;;;;14.20;10.70;;;;;;;13.64;57.49;101572.21;105936;1306;21941;-62
2022/11/10 07:41:12;;;;;;;14.60;10.10;;;;;;;13.77;57.62;101570.02;105940;1304;21962;-64
2022/11/10 07:43:38;;;;;;;16.40;9.80;;;;;;;13.87;57.57;101572.79;105945;1297;21969;-61
2022/11/10 07:46:04;;;;;;;13.30;9.00;;;;;;;13.97;57.40;101571.48;105968;1304;21973;-65
2022/11/10 07:48:30;;;;;;;12.70;9.40;;;;;;;14.07;57.16;101575.11;105977;1304;22427;-62
2022/11/10 07:50:56;;;;;;;11.60;8.80;;;;;;;14.13;57.50;101578.77;106028;1304;21978;-61
2022/11/10 07:53:21;;;;;;;14.10;9.40;;;;;;;14.19;57.55;101576.25;105905;1306;21980;-64
2022/11/10 07:55:47;;;;;;;12.40;9.10;;;;;;;14.27;57.51;101580.77;105917;1304;21989;-62
2022/11/10 07:58:15;;;;;;;13.90;8.80;;;;;;;14.42;57.36;101580.81;106024;1306;21969;-65
2022/11/10 08:00:41;;;;;;;11.80;9.20;;;;;;;14.58;57.60;101581.20;106011;1304;21957;-63
2022/11/10 08:03:10;;;;;;;13.30;9.10;;;;;;;14.71;56.89;101585.70;105933;1304;21982;-64
2022/11/10 08:05:36;;;;;;;13.80;9.10;;;;;;;14.74;56.43;101588.14;107877;1306;21997;-63
2022/11/10 08:08:02;;;;;;;11.80;8.40;;;;;;;14.76;56.39;101587.59;107908;1306;21789;-65
2022/11/10 08:10:28;;;;;;;16.40;8.20;;;;;;;14.80;56.25;101589.14;107915;1305;21938;-65
2022/11/10 08:12:58;;;;;;;13.10;8.30;;;;;;;14.82;56.04;101592.12;107929;1306;22333;-65
2022/11/10 08:15:24;;;;;;;12.60;8.50;;;;;;;14.85;55.98;101589.43;107926;1306;21799;-64
2022/11/10 08:18:20;;;;;;;12.30;8.20;;;;;;;14.92;55.94;101588.66;107428;1306;22010;-65
2022/11/10 08:20:47;;;;;;;10.20;7.60;;;;;;;14.97;55.67;101588.08;106280;1306;21972;-65
2022/11/10 08:23:13;;;;;;;12.70;8.80;;;;;;;14.99;55.76;101589.98;105892;1306;21963;-63
2022/11/10 08:25:40;;;;;;;14.00;8.50;;;;;;;15.03;55.63;101591.90;105932;1306;22259;-66
2022/11/10 08:28:13;;;;;;;14.30;8.50;;;;;;;15.07;55.37;101589.90;106041;1306;22043;-64
2022/11/10 08:30:46;;;;;;;12.00;8.10;;;;;;;15.09;55.36;101592.02;106015;1306;21950;-64
2022/11/10 08:33:13;;;;;;;14.40;8.40;;;;;;;15.10;55.34;101590.04;106095;1296;22428;-65
2022/11/10 08:35:42;;;;;;;12.50;8.30;;;;;;;15.12;55.30;101590.38;106072;1304;21969;-64
2022/11/10 08:38:16;;;;;;;12.60;8.40;;;;;;;15.18;55.28;101588.55;106158;1299;23673;-65
2022/11/10 08:40:42;;;;;;;12.00;8.00;;;;;;;15.28;55.26;101590.01;105964;1302;21965;-64
2022/11/10 08:43:09;;;;;;;10.70;8.10;;;;;;;15.43;55.11;101586.11;106106;1299;22484;-65
2022/11/10 08:45:36;;;;;;;14.60;8.90;;;;;;;15.63;55.02;101585.48;106071;1302;21969;-63
2022/11/10 08:48:04;;;;;;;11.00;7.90;;;;;;;15.79;55.03;101585.60;106188;1301;22011;-65
2022/11/10 08:50:31;;;;;;;12.20;8.60;;;;;;;15.94;54.66;101586.98;105999;1304;21973;-64
2022/11/10 08:53:00;;;;;;;13.20;8.90;;;;;;;16.05;54.31;101588.27;106008;1304;21964;-63
2022/11/10 08:55:26;;;;;;;12.00;8.90;;;;;;;16.13;54.09;101585.27;106040;1304;21965;-65
2022/11/10 08:57:51;;;;;;;12.70;8.50;;;;;;;16.20;53.99;101580.04;106170;1299;21954;-65
2022/11/10 09:00:17;;;;;;;11.40;7.70;;;;;;;16.28;53.66;101579.02;106037;1304;21965;-64
2022/11/10 09:02:43;;;;;;;11.30;8.10;;;;;;;16.32;53.43;101579.48;106015;1304;21979;-63
2022/11/10 09:05:09;;;;;;;11.30;8.90;;;;;;;16.35;53.39;101574.46;105933;1306;21992;-63
2022/11/10 09:07:47;;;;;;;14.50;8.70;;;;;;;16.43;53.65;101573.46;106106;1302;22008;-65
2022/11/10 09:10:14;;;;;;;14.00;8.40;;;;;;;16.50;53.17;101570.86;105969;1304;21943;-61
2022/11/10 09:12:41;;;;;;;11.90;8.20;;;;;;;16.58;53.15;101568.75;105971;1305;23841;-61
2022/11/10 09:15:08;;;;;;;9.60;7.50;;;;;;;16.69;53.16;101571.92;106043;1299;21959;-64
2022/11/10 09:17:35;;;;;;;11.10;8.10;;;;;;;16.87;52.98;101569.98;106024;1303;23711;-63
2022/11/10 09:20:06;;;;;;;11.00;8.40;;;;;;;17.07;52.65;101565.18;106033;1304;22004;-63
2022/11/10 09:22:33;;;;;;;15.40;8.10;;;;;;;17.25;52.38;101564.83;106142;1304;21969;-62
2022/11/10 09:24:59;;;;;;;11.20;8.40;;;;;;;17.44;52.59;101563.33;106034;1299;21964;-64
2022/11/10 09:27:25;;;;;;;12.70;8.20;;;;;;;17.64;51.77;101560.92;106129;1299;21964;-61
2022/11/10 09:29:51;;;;;;;10.30;7.70;;;;;;;17.80;51.68;101562.52;105972;1304;21970;-62
2022/11/10 09:32:17;;;;;;;10.60;7.70;;;;;;;17.92;51.12;101557.98;106078;1304;21971;-65
2022/11/10 09:34:43;;;;;;;16.90;9.70;;;;;;;18.02;50.83;101559.00;105934;1306;21966;-62
2022/11/10 09:37:08;;;;;;;12.40;8.70;;;;;;;18.04;50.63;101561.28;105951;1306;21958;-65
2022/11/10 09:39:34;;;;;;;11.80;8.30;;;;;;;18.09;50.69;101559.02;105958;1304;22008;-61
2022/11/10 09:42:00;;;;;;;16.00;10.30;;;;;;;18.23;50.95;101558.13;106035;1306;21973;-62
2022/11/10 09:44:31;;;;;;;11.60;9.10;;;;;;;18.31;50.22;101555.79;106042;1299;21968;-63
2022/11/10 09:47:00;;;;;;;13.50;7.90;;;;;;;18.43;50.12;101556.55;106238;1304;21965;-62
2022/11/10 09:49:34;;;;;;;11.50;7.80;;;;;;;18.54;50.01;101553.42;106086;1299;21977;-64
2022/11/10 09:52:00;;;;;;;12.00;7.60;;;;;;;18.67;49.55;101549.68;106045;1299;21967;-62
2022/11/10 09:54:41;;;;;;;11.00;7.40;;;;;;;18.82;49.95;101546.42;105851;1300;21955;-61
2022/11/10 09:57:11;;;;;;;10.10;7.00;;;;;;;18.91;49.00;101547.43;106027;1299;21949;-62
2022/11/10 09:59:37;;;;;;;12.60;8.60;;;;;;;18.92;48.23;101545.25;106129;1304;21948;-64
2022/11/10 10:02:04;;;;;;;11.00;7.60;;;;;;;18.92;48.38;101543.13;106205;1299;21969;-62
2022/11/10 10:04:54;;;;;;;10.60;8.30;;;;;;;18.93;48.94;101544.73;105968;1306;21947;-62
2022/11/10 10:07:36;;;;;;;10.20;6.90;;;;;;;19.05;48.87;101541.36;106110;1299;21957;-62
2022/11/10 10:10:14;;;;;;;9.70;7.40;;;;;;;19.13;47.92;101541.66;106071;1299;21959;-63
2022/11/10 10:13:03;;;;;;;12.80;8.10;;;;;;;19.14;47.70;101538.77;105968;1298;21966;-64
2022/11/10 10:15:35;;;;;;;9.90;7.40;;;;;;;19.11;47.76;101539.40;105989;1306;21957;-61
2022/11/10 10:18:05;;;;;;;13.20;7.70;;;;;;;19.18;47.85;101536.17;105874;1304;21978;-61
2022/11/10 10:20:47;;;;;;;11.80;7.60;;;;;;;19.26;47.61;101532.91;105973;1305;23713;-62
2022/11/10 10:23:18;;;;;;;11.00;7.30;;;;;;;19.26;46.77;101533.10;105970;1306;21987;-65
2022/11/10 10:25:44;;;;;;;13.60;7.80;;;;;;;19.25;47.40;101531.34;106053;1306;21989;-64
2022/11/10 10:28:22;;;;;;;10.80;7.70;;;;;;;19.25;47.21;101529.37;105823;1306;22003;-64
2022/11/10 10:30:48;;;;;;;10.50;7.40;;;;;;;19.29;47.08;101529.98;106032;1301;21965;-65
2022/11/10 10:33:16;;;;;;;12.30;8.60;;;;;;;19.26;47.15;101529.36;105957;1306;24367;-65
2022/11/10 10:35:43;;;;;;;15.10;9.00;;;;;;;19.27;47.27;101528.44;105927;1306;21964;-67
2022/11/10 10:38:24;;;;;;;19.50;9.40;;;;;;;19.37;46.99;101527.25;106056;1299;21991;-66
2022/11/10 10:40:50;;;;;;;12.10;9.60;;;;;;;19.44;46.88;101527.39;105929;1306;22017;-66
2022/11/10 10:43:16;;;;;;;13.40;9.60;;;;;;;19.47;46.87;101528.73;105956;1304;21967;-63
2022/11/10 10:45:46;;;;;;;10.20;8.30;;;;;;;19.51;46.47;101524.69;105951;1306;21984;-62
2022/11/10 10:48:28;;;;;;;12.40;8.70;;;;;;;19.54;46.53;101525.48;106005;1306;21961;-65
2022/11/10 10:50:54;;;;;;;11.40;8.90;;;;;;;19.55;46.29;101521.70;105923;1297;22011;-67
2022/11/10 10:53:23;;;;;;;11.30;8.30;;;;;;;19.63;46.66;101523.59;106042;1306;24325;-64
2022/11/10 10:56:02;;;;;;;11.50;8.70;;;;;;;19.78;46.61;101524.17;105968;1304;22023;-64
2022/11/10 10:58:57;;;;;;;11.60;9.00;;;;;;;19.92;46.86;101524.27;105721;1306;23735;-65
2022/11/10 11:01:36;;;;;;;9.40;7.40;;;;;;;20.08;46.39;101523.04;105769;1306;21962;-65
2022/11/10 11:04:05;;;;;;;10.60;7.30;;;;;;;20.14;45.70;101523.55;105784;1306;21975;-63
2022/11/10 11:06:32;;;;;;;11.70;7.80;;;;;;;20.12;45.68;101520.23;105886;1306;21989;-67
2022/11/10 11:09:08;;;;;;;17.30;8.10;;;;;;;20.04;45.61;101515.70;106018;1306;23643;-62
2022/11/10 11:11:42;;;;;;;9.00;7.50;;;;;;;19.96;45.05;101515.08;106008;1304;21968;-62
2022/11/10 11:14:23;;;;;;;9.70;7.40;;;;;;;19.83;44.47;101511.20;105959;1306;21964;-62
2022/11/10 11:16:50;;;;;;;16.70;7.80;;;;;;;19.76;45.81;101512.30;105795;1302;21962;-67
2022/11/10 11:19:20;;;;;;;10.20;7.40;;;;;;;19.78;45.38;101516.35;106000;1306;21981;-67
2022/11/10 11:22:14;;;;;;;9.70;7.10;;;;;;;19.76;45.16;101516.23;106034;1298;22926;-63
2022/11/10 11:25:03;;;;;;;8.90;6.70;;;;;;;19.69;45.52;101513.77;105943;1306;21952;-65